METAR Data
IDs: Format: Raw Decoded Include TAF

Data at: 2231 UTC 24 Mar 2019

KBRO 242153Z 14017KT 10SM FEW024 BKN035 26/21 A2999 RMK AO2 SLP155 T02610211
KBRO 242053Z 14019G23KT 10SM FEW026 BKN037 27/21 A3000 RMK AO2 SLP158 T02720206 56022
KBRO 241953Z 14013G22KT 10SM SCT028 OVC039 27/21 A3002 RMK AO2 SLP164 T02670206
KBRO 241853Z 15016KT 10SM FEW023 SCT029 OVC037 28/21 A3005 RMK AO2 SLP174 T02780206
KBRO 241753Z 15015G23KT 10SM FEW021 BKN041 OVC049 27/21 A3007 RMK AO2 SLP181 T02670211 10278 20206 58007
KBRO 241733Z 15021G24KT 10SM SCT021 BKN039 OVC047 26/21 A3008 RMK AO2 T02610211
KBRO 241653Z 16014KT 10SM SCT019 BKN025 OVC043 26/21 A3009 RMK AO2 SLP189 T02610211
KBRO 241649Z 15013KT 10SM SCT019 BKN025 OVC045 26/21 A3009 RMK AO2
KBRO 241633Z 14015KT 10SM FEW018 SCT024 OVC041 26/22 A3009 RMK AO2 T02560217
KBRO 241553Z 17009KT 10SM SCT015 BKN020 OVC033 24/22 A3009 RMK AO2 SLP188 T02440222
KBRO 241548Z 17008KT 10SM SCT015 SCT020 OVC033 24/22 A3009 RMK AO2
KBRO 241525Z 16011KT 10SM SCT013 BKN020 OVC033 24/22 A3009 RMK AO2 T02390222
KBRO 241516Z 17009KT 10SM BKN014 BKN021 OVC035 24/22 A3009 RMK AO2 T02390222
KBRO 241503Z 16012KT 10SM SCT012 BKN021 OVC033 24/22 A3009 RMK AO2 T02390222
KBRO 241453Z 16009KT 10SM SCT012 OVC033 23/22 A3008 RMK AO2 SLP185 T02330222 53023
KBRO 241353Z 15008KT 10SM OVC031 22/22 A3006 RMK AO2 SLP178 T02220217
KBRO 241308Z 15007KT 10SM BKN030 21/21 A3004 RMK AO2 T02110211
KBRO 241253Z 16007KT 10SM BKN028 21/21 A3004 RMK AO2 SLP169 T02110206
KBRO 241153Z 15010KT 10SM CLR 21/21 A3002 RMK AO2 SLP163 T02110206 10211 20200 55001
KBRO 241106Z 16009KT 10SM FEW017 BKN030 21/21 A3001 RMK AO2 T02110206
KBRO 241053Z 15008KT 10SM SCT016 BKN029 OVC033 21/21 A3001 RMK AO2 SLP161 T02110206
KBRO 240953Z AUTO 14005KT 10SM BKN020 BKN027 21/20 A3002 RMK AO2 SLP163 T02060200
KBRO 240918Z AUTO 19006KT 10SM BKN021 21/20 A3002 RMK AO2 T02060200
KBRO 240853Z AUTO 18006KT 10SM CLR 21/20 A3002 RMK AO2 SLP164 T02060200 56012
KBRO 240753Z AUTO 17006KT 10SM CLR 21/20 A3003 RMK AO2 SLP167 T02060200
KBRO 240653Z AUTO 15009KT 10SM CLR 21/20 A3004 RMK AO2 SLP171 T02060200
KBRO 240553Z AUTO 15010KT 10SM CLR 21/20 A3006 RMK AO2 SLP176 T02060200 10239 20200 402720189 58005
KBRO 240453Z AUTO 14006KT 10SM CLR 20/19 A3008 RMK AO2 SLP184 T02000194
KBRO 240353Z 13006KT 10SM CLR 21/19 A3009 RMK AO2 SLP188 T02110194
KBRO 240253Z 13008KT 10SM OVC060 22/20 A3007 RMK AO2 SLP181 T02170200 52018
KBRO 240153Z 12007KT 10SM OVC060 23/19 A3006 RMK AO2 SLP177 T02280194
KBRO 240053Z 13011KT 10SM OVC045 23/19 A3003 RMK AO2 SLP168 T02330194
KBRO 232353Z 14013KT 10SM FEW025 OVC042 24/19 A3002 RMK AO2 SLP163 T02390189 10272 20239 53005
KBRO 232334Z 14015KT 10SM SCT027 OVC042 24/19 A3001 RMK AO2 T02440189
KBRO 232308Z 15017KT 10SM BKN028 BKN043 25/19 A3000 RMK AO2 T02500189
KBRO 232253Z 13016G24KT 10SM FEW027 SCT033 BKN043 25/19 A3000 RMK AO2 SLP157 T02500189
KBRO 232245Z 15016KT 10SM SCT028 SCT034 OVC042 25/18 A3000 RMK AO2 T02500183
KBRO 232220Z 14015KT 10SM OVC028 24/18 A3000 RMK AO2 T02440183
KBRO 232153Z 15017G23KT 10SM OVC031 25/18 A3000 RMK AO2 SLP156 T02500183
KBRO 232053Z 15018KT 10SM OVC033 26/19 A3000 RMK AO2 SLP158 T02560189 58020
KBRO 231953Z 15016KT 10SM OVC034 26/19 A3003 RMK AO2 SLP168 T02610189
KBRO 231853Z 15016G26KT 10SM OVC033 26/18 A3004 RMK AO2 PK WND 15026/1851 SLP171 T02560183
KBRO 231753Z 15017KT 10SM SCT029 BKN035 OVC048 26/19 A3006 RMK AO2 SLP178 T02560189 10261 20200 58004 $
KBRO 231740Z 16017KT 10SM BKN030 BKN035 OVC045 26/19 A3007 RMK AO2 T02560194 $
KBRO 231713Z 14015G22KT 10SM BKN029 BKN035 OVC045 26/19 A3008 RMK AO2 T02560189 $
KBRO 231702Z 13016G20KT 10SM SCT025 BKN032 OVC044 25/19 A3008 RMK AO2 T02500189 $
KBRO 231653Z 16014KT 10SM BKN027 BKN032 OVC044 26/19 A3007 RMK AO2 SLP183 T02560194 $
KBRO 231553Z 14015KT 10SM BKN026 BKN034 25/19 A3007 RMK AO2 SLP181 T02500194
KBRO 231453Z 15011KT 10SM CLR 24/19 A3007 RMK AO2 SLP182 T02390194 53021
KBRO 231353Z 13008KT 10SM CLR 21/19 A3005 RMK AO2 SLP174 T02110189
KBRO 231253Z 13008KT 10SM CLR 20/18 A3003 RMK AO2 SLP168 T02000183
KBRO 231153Z 13010KT 10SM CLR 20/18 A3001 RMK AO2 SLP162 T02000183 10211 20189 53003
KBRO 231053Z 12008KT 10SM CLR 19/18 A3000 RMK AO2 SLP159 T01940178